Raybon, Georgia
Current Conditions -  °F | °C
As of 2:15 PM on Monday 20 Oct 2014 (Local Time) from KAYS Reporting Station
Clear Clear  
Wind Chill: 81°   Ceiling: Unl
Heat Index: 83°   Visibility: 10mi
Dew Point: 66°   Wind: 3mph
Humidity: 60%   Direction: 190°S
Pressure: 30.02"   Gusts: NA
Location:  31.1753°N, 81.969°W
Report Text: KAYS 201815Z AUTO 19003KT 10SM CLR 27/19 A3002 RMK AO2 T02740190
Loading
Personal Weather Stations






























Interactive Weather Map
Tropical Storm Tracking
New forecast layout! Learn more

10-Day Weather Forecast

Advertisements
Track Severe Weather on mobile